Time;durP1;ratioP1;P1;durP2;ratioP2;P2;SDS_P1;SDS_P2;PMS_P1;PMS_P2;Temp;Humidity;BMP_temperature;BMP_pressure;BME280_temperature;BME280_humidity;BME280_pressure;Samples;Min_cycle;Max_cycle;Signal;HPM_P1;HPM_P2
2023/04/09 00:02:12;;;;;;;27.50;22.90;;;4.20;91.60;;;;;;5013243;28;20469;-52
2023/04/09 00:04:40;;;;;;;26.20;22.40;;;4.10;91.30;;;;;;5013335;28;20499;-52
2023/04/09 00:07:06;;;;;;;32.97;23.40;;;4.10;88.30;;;;;;5012621;28;22320;-52
2023/04/09 00:09:33;;;;;;;27.90;23.90;;;4.00;85.80;;;;;;5019388;28;20969;-52
2023/04/09 00:12:00;;;;;;;25.93;22.97;;;3.90;84.40;;;;;;5003030;28;20498;-52
2023/04/09 00:14:27;;;;;;;31.23;22.87;;;3.90;82.00;;;;;;5013119;28;20470;-51
2023/04/09 00:16:54;;;;;;;27.47;21.90;;;3.80;86.60;;;;;;5012915;28;20969;-52
2023/04/09 00:19:20;;;;;;;26.60;21.87;;;3.70;90.20;;;;;;5013197;28;20919;-52
2023/04/09 00:21:48;;;;;;;24.93;22.03;;;3.70;89.30;;;;;;5011903;28;20466;-51
2023/04/09 00:24:15;;;;;;;25.70;21.40;;;3.70;90.50;;;;;;5011445;28;20564;-52
2023/04/09 00:26:41;;;;;;;28.10;21.97;;;3.70;87.70;;;;;;5013009;28;20514;-52
2023/04/09 00:29:08;;;;;;;24.40;20.90;;;3.60;89.40;;;;;;5010938;28;20499;-53
2023/04/09 00:31:35;;;;;;;29.30;22.90;;;3.60;81.90;;;;;;5012772;28;20517;-52
2023/04/09 00:34:01;;;;;;;25.90;23.00;;;3.60;78.40;;;;;;5013264;28;20441;-52
2023/04/09 00:36:28;;;;;;;25.47;21.60;;;3.60;72.90;;;;;;5012748;28;20506;-52
2023/04/09 00:38:56;;;;;;;37.47;24.00;;;3.60;72.40;;;;;;5012588;28;20504;-52
2023/04/09 00:41:22;;;;;;;24.60;20.93;;;3.50;73.50;;;;;;5011661;28;20500;-53
2023/04/09 00:43:49;;;;;;;24.77;21.90;;;3.40;75.90;;;;;;5020612;28;20524;-52
2023/04/09 00:46:16;;;;;;;26.70;22.20;;;3.30;77.80;;;;;;5017210;28;20517;-53
2023/04/09 00:48:43;;;;;;;25.30;21.27;;;3.40;75.80;;;;;;5013738;28;20487;-55
2023/04/09 00:51:10;;;;;;;24.93;21.07;;;3.30;74.80;;;;;;5012816;28;20495;-55
2023/04/09 00:53:36;;;;;;;34.00;24.10;;;3.30;77.70;;;;;;5012521;28;20937;-53
2023/04/09 00:56:05;;;;;;;26.13;21.53;;;3.30;81.90;;;;;;5011710;28;20488;-54
2023/04/09 00:58:32;;;;;;;24.63;21.63;;;3.20;81.80;;;;;;5012473;28;20998;-56
2023/04/09 01:00:59;;;;;;;25.67;20.87;;;3.10;84.60;;;;;;5012926;28;20479;-56
2023/04/09 01:03:25;;;;;;;26.20;22.83;;;3.10;84.10;;;;;;5016112;28;20505;-56
2023/04/09 01:06:00;;;;;;;24.43;21.80;;;3.10;84.80;;;;;;5011693;28;20518;-55
2023/04/09 01:08:32;;;;;;;23.73;21.10;;;3.00;86.80;;;;;;5011917;28;20491;-55
2023/04/09 01:11:07;;;;;;;25.60;20.80;;;2.90;86.60;;;;;;5007208;28;20494;-55
2023/04/09 01:13:42;;;;;;;27.70;22.70;;;3.00;82.30;;;;;;5012072;28;20474;-55
2023/04/09 01:16:12;;;;;;;26.60;21.00;;;3.10;80.50;;;;;;5014826;28;20486;-54
2023/04/09 01:18:43;;;;;;;24.83;20.90;;;3.10;77.20;;;;;;5011683;28;20503;-56
2023/04/09 01:21:13;;;;;;;25.23;21.90;;;3.30;71.90;;;;;;5011513;28;20477;-54
2023/04/09 01:23:47;;;;;;;30.10;22.80;;;3.40;72.90;;;;;;5010609;28;20951;-55
2023/04/09 01:26:22;;;;;;;28.60;20.77;;;3.50;71.20;;;;;;5009687;28;20492;-55
2023/04/09 01:28:54;;;;;;;29.77;21.33;;;3.60;66.50;;;;;;5008119;28;20482;-55
2023/04/09 01:31:28;;;;;;;32.80;22.57;;;3.70;65.50;;;;;;5006667;28;20905;-55
2023/04/09 01:33:55;;;;;;;42.20;23.73;;;3.70;65.10;;;;;;5012356;28;21201;-55
2023/04/09 01:36:22;;;;;;;60.63;23.97;;;3.80;63.00;;;;;;5011464;28;20485;-55
2023/04/09 01:38:51;;;;;;;73.47;24.43;;;3.80;59.10;;;;;;5011311;28;20513;-55
2023/04/09 01:41:21;;;;;;;59.20;26.00;;;3.80;56.00;;;;;;5009868;28;20468;-55
2023/04/09 01:43:50;;;;;;;59.27;28.17;;;3.90;53.20;;;;;;5010249;28;20980;-55
2023/04/09 01:46:18;;;;;;;66.67;27.30;;;3.90;51.40;;;;;;5011073;28;20520;-55
2023/04/09 01:48:46;;;;;;;97.40;27.10;;;4.00;49.90;;;;;;5012589;28;20518;-55
2023/04/09 01:51:13;;;;;;;77.80;23.40;;;4.10;47.90;;;;;;5011173;28;20455;-55
2023/04/09 01:53:40;;;;;;;76.53;21.00;;;4.20;46.00;;;;;;5005933;28;20470;-56
2023/04/09 01:56:07;;;;;;;40.90;21.37;;;4.30;44.60;;;;;;5007266;28;20438;-56
2023/04/09 01:58:34;;;;;;;55.50;21.07;;;4.30;43.70;;;;;;5011662;28;20497;-56
2023/04/09 02:01:06;;;;;;;42.13;22.40;;;4.30;43.20;;;;;;5011194;28;20514;-54
2023/04/09 02:03:37;;;;;;;60.07;19.73;;;4.40;43.30;;;;;;5010987;28;21048;-55
2023/04/09 02:06:09;;;;;;;23.07;17.10;;;4.40;42.40;;;;;;5009426;28;20567;-55
2023/04/09 02:08:36;;;;;;;23.67;17.53;;;4.40;42.30;;;;;;5010101;28;20585;-55
2023/04/09 02:11:05;;;;;;;76.43;18.03;;;4.40;42.40;;;;;;5011529;28;20494;-55
2023/04/09 02:13:33;;;;;;;57.83;18.17;;;4.40;42.20;;;;;;5011922;28;20970;-55
2023/04/09 02:16:01;;;;;;;83.97;18.90;;;4.50;41.50;;;;;;5010660;28;20462;-54
2023/04/09 02:18:31;;;;;;;26.67;16.30;;;4.50;42.20;;;;;;5009669;28;20519;-54
2023/04/09 02:20:58;;;;;;;81.60;17.30;;;4.50;41.60;;;;;;5015204;28;20447;-55
2023/04/09 02:23:26;;;;;;;53.80;16.43;;;4.50;41.40;;;;;;5007557;28;20535;-55
2023/04/09 02:25:53;;;;;;;81.37;17.37;;;4.50;41.40;;;;;;5009385;28;20475;-55
2023/04/09 02:28:20;;;;;;;79.27;17.07;;;4.50;41.50;;;;;;5010095;28;20514;-55
2023/04/09 02:30:46;;;;;;;62.70;16.97;;;4.60;41.70;;;;;;5010799;28;21001;-54
2023/04/09 02:33:13;;;;;;;81.80;17.07;;;4.60;41.10;;;;;;5006776;28;20517;-55
2023/04/09 02:35:41;;;;;;;46.30;17.30;;;4.60;40.70;;;;;;5010242;28;20498;-55
2023/04/09 02:38:12;;;;;;;75.10;19.00;;;4.50;40.90;;;;;;5009875;28;20563;-55
2023/04/09 02:40:39;;;;;;;97.93;17.13;;;4.60;41.90;;;;;;5008844;28;20560;-55
2023/04/09 02:43:05;;;;;;;82.97;18.87;;;4.60;42.10;;;;;;5009234;28;20909;-54
2023/04/09 02:45:32;;;;;;;100.47;18.70;;;4.50;42.30;;;;;;5010139;28;20865;-56
2023/04/09 02:47:59;;;;;;;84.13;18.33;;;4.60;42.20;;;;;;5006552;28;20602;-55
2023/04/09 02:50:25;;;;;;;72.10;18.30;;;4.60;42.90;;;;;;5008658;28;20503;-54
2023/04/09 02:52:53;;;;;;;55.17;18.17;;;4.60;42.50;;;;;;5014150;28;20493;-54
2023/04/09 02:55:22;;;;;;;61.50;17.97;;;4.60;41.10;;;;;;5012425;28;20913;-56
2023/04/09 02:57:48;;;;;;;58.00;19.23;;;4.60;43.10;;;;;;5010877;28;20503;-54
2023/04/09 03:00:15;;;;;;;75.63;19.77;;;4.70;43.70;;;;;;5013642;28;20487;-55
2023/04/09 03:02:41;;;;;;;116.87;19.07;;;4.70;43.80;;;;;;5014744;28;20976;-54
2023/04/09 03:05:08;;;;;;;77.73;19.03;;;4.70;43.30;;;;;;5014048;28;20493;-53
2023/04/09 03:07:35;;;;;;;77.60;19.70;;;4.70;42.50;;;;;;5013492;28;20595;-54
2023/04/09 03:10:03;;;;;;;92.90;18.20;;;4.70;42.80;;;;;;5012810;28;20934;-54
2023/04/09 03:12:30;;;;;;;75.53;19.43;;;4.70;43.90;;;;;;5014500;28;20524;-54
2023/04/09 03:14:56;;;;;;;87.40;19.70;;;4.70;43.80;;;;;;5010981;28;20892;-55
2023/04/09 03:17:24;;;;;;;45.73;20.07;;;4.80;44.50;;;;;;5009767;28;20461;-55
2023/04/09 03:19:51;;;;;;;86.00;18.60;;;4.80;45.40;;;;;;5011066;28;21052;-55
2023/04/09 03:22:17;;;;;;;82.93;19.03;;;4.80;45.00;;;;;;5013665;28;21052;-54
2023/04/09 03:24:44;;;;;;;117.70;18.90;;;4.80;43.60;;;;;;5011647;28;20888;-55
2023/04/09 03:27:12;;;;;;;71.37;19.70;;;4.80;44.40;;;;;;5009729;28;20566;-54
2023/04/09 03:29:38;;;;;;;89.07;20.27;;;4.80;44.90;;;;;;5012292;28;20515;-54
2023/04/09 03:32:05;;;;;;;84.80;19.77;;;4.90;45.00;;;;;;5008067;28;20502;-55
2023/04/09 03:34:32;;;;;;;50.97;20.07;;;4.90;45.10;;;;;;5012548;28;20494;-55
2023/04/09 03:36:58;;;;;;;62.70;18.87;;;4.90;45.10;;;;;;5012093;28;20495;-54
2023/04/09 03:39:29;;;;;;;70.77;20.50;;;5.00;45.50;;;;;;5012452;28;20483;-55
2023/04/09 03:41:56;;;;;;;68.73;19.90;;;5.00;44.30;;;;;;5011524;28;20453;-53
2023/04/09 03:44:24;;;;;;;61.60;21.30;;;4.90;43.70;;;;;;5012439;28;20461;-54
2023/04/09 03:46:51;;;;;;;55.60;20.60;;;4.90;43.80;;;;;;5014539;28;20544;-54
2023/04/09 03:49:17;;;;;;;100.07;19.67;;;4.90;43.40;;;;;;5010753;28;21025;-54
2023/04/09 03:51:44;;;;;;;80.90;20.30;;;4.90;42.80;;;;;;5008736;28;21164;-54
2023/04/09 03:54:11;;;;;;;67.83;21.13;;;4.90;43.80;;;;;;5012749;28;20469;-54
2023/04/09 03:56:37;;;;;;;79.53;20.90;;;5.00;45.40;;;;;;5010433;28;20493;-54
2023/04/09 03:59:04;;;;;;;94.33;21.40;;;4.90;43.60;;;;;;5009882;28;20524;-54
2023/04/09 04:01:32;;;;;;;113.53;20.97;;;5.00;43.80;;;;;;5010325;28;20473;-54
2023/04/09 04:03:58;;;;;;;54.23;19.30;;;5.00;44.80;;;;;;5010178;28;20558;-54
2023/04/09 04:06:26;;;;;;;68.37;22.17;;;5.10;45.60;;;;;;5012675;28;20507;-56
2023/04/09 04:08:53;;;;;;;64.50;22.73;;;5.10;45.00;;;;;;5010845;28;20525;-56
2023/04/09 04:11:19;;;;;;;74.23;23.03;;;5.10;45.40;;;;;;5006542;28;20473;-55
2023/04/09 04:13:46;;;;;;;54.40;22.10;;;5.10;45.90;;;;;;5010666;28;20461;-54
2023/04/09 04:16:12;;;;;;;51.00;20.57;;;5.10;45.90;;;;;;5012753;28;20491;-55
2023/04/09 04:18:40;;;;;;;83.53;21.87;;;5.10;44.80;;;;;;5009602;28;20504;-54
2023/04/09 04:21:12;;;;;;;120.90;21.83;;;5.20;45.50;;;;;;5010375;28;20489;-55
2023/04/09 04:23:39;;;;;;;53.80;22.47;;;5.20;43.50;;;;;;5014923;28;20496;-55
2023/04/09 04:26:08;;;;;;;80.87;21.10;;;5.20;44.10;;;;;;5011246;28;20548;-55
2023/04/09 04:28:35;;;;;;;81.23;22.07;;;5.10;43.70;;;;;;5013100;28;20492;-55
2023/04/09 04:31:02;;;;;;;80.47;22.80;;;5.10;42.20;;;;;;5010805;28;20510;-55
2023/04/09 04:33:28;;;;;;;54.70;21.40;;;5.10;43.40;;;;;;5011214;28;20466;-55
2023/04/09 04:36:06;;;;;;;69.20;22.57;;;5.10;44.30;;;;;;5013581;28;20489;-55
2023/04/09 04:38:33;;;;;;;68.60;23.10;;;5.10;43.20;;;;;;5008623;28;20492;-55
2023/04/09 04:40:59;;;;;;;42.63;21.20;;;5.20;43.80;;;;;;5012825;28;20501;-55
2023/04/09 04:43:26;;;;;;;43.57;22.80;;;5.20;44.70;;;;;;5012747;28;20907;-55
2023/04/09 04:45:52;;;;;;;35.13;22.97;;;5.20;44.70;;;;;;5012861;28;20462;-54
2023/04/09 04:48:19;;;;;;;31.30;22.93;;;5.30;44.70;;;;;;5016424;28;20540;-54
2023/04/09 04:50:45;;;;;;;50.80;21.00;;;5.30;44.20;;;;;;5011413;28;20501;-54
2023/04/09 04:53:13;;;;;;;52.47;23.00;;;5.30;43.70;;;;;;5012202;28;20466;-56
2023/04/09 04:55:40;;;;;;;50.93;22.10;;;5.30;42.30;;;;;;5011973;28;20869;-55
2023/04/09 04:58:06;;;;;;;57.47;21.93;;;5.30;41.90;;;;;;5010544;28;20534;-53
2023/04/09 05:00:33;;;;;;;47.17;22.53;;;5.30;40.60;;;;;;5012909;28;20482;-56
2023/04/09 05:02:59;;;;;;;52.40;24.30;;;5.20;40.50;;;;;;5009828;28;20497;-54
2023/04/09 05:05:26;;;;;;;35.00;23.07;;;5.20;40.50;;;;;;5012687;28;20474;-54
2023/04/09 05:07:52;;;;;;;42.33;22.47;;;5.20;37.50;;;;;;5010889;28;20541;-55
2023/04/09 05:10:20;;;;;;;55.23;22.63;;;5.20;37.50;;;;;;5012598;28;20499;-55
2023/04/09 05:12:47;;;;;;;32.40;23.20;;;5.20;36.30;;;;;;5004741;28;20499;-54
2023/04/09 05:15:13;;;;;;;36.37;23.17;;;5.20;38.40;;;;;;5011819;28;20473;-55
2023/04/09 05:17:42;;;;;;;33.63;23.70;;;5.20;38.70;;;;;;5010020;28;20462;-54
2023/04/09 05:20:10;;;;;;;42.60;25.00;;;5.30;38.60;;;;;;5011529;28;21114;-55
2023/04/09 05:22:37;;;;;;;39.03;23.13;;;5.20;35.20;;;;;;5007656;28;20506;-54
2023/04/09 05:25:04;;;;;;;44.20;24.60;;;5.20;32.90;;;;;;5009070;28;20932;-55
2023/04/09 05:27:32;;;;;;;44.60;23.70;;;5.20;35.70;;;;;;5005072;28;21663;-54
2023/04/09 05:29:58;;;;;;;40.10;24.97;;;5.20;35.60;;;;;;5001951;28;21048;-54
2023/04/09 05:32:25;;;;;;;38.70;23.80;;;5.20;33.70;;;;;;5010209;28;20496;-54
2023/04/09 05:34:51;;;;;;;34.80;23.40;;;5.30;34.10;;;;;;5009252;28;20490;-53
2023/04/09 05:37:18;;;;;;;44.20;23.03;;;5.30;32.30;;;;;;5010688;28;20504;-55
2023/04/09 05:39:45;;;;;;;41.93;23.73;;;5.20;30.60;;;;;;5010124;28;20519;-54
2023/04/09 05:42:11;;;;;;;36.50;23.60;;;5.20;31.60;;;;;;5010691;28;20527;-54
2023/04/09 05:44:39;;;;;;;33.70;24.00;;;5.30;32.50;;;;;;5007485;28;20503;-53
2023/04/09 05:47:06;;;;;;;29.77;23.57;;;5.40;33.60;;;;;;5011586;28;20542;-54
2023/04/09 05:49:32;;;;;;;33.60;22.90;;;5.50;33.40;;;;;;5010778;28;20516;-55
2023/04/09 05:51:59;;;;;;;38.20;25.63;;;5.50;31.80;;;;;;5009265;28;20493;-55
2023/04/09 05:54:25;;;;;;;61.07;22.73;;;5.50;31.70;;;;;;5011319;28;20497;-53
2023/04/09 05:56:52;;;;;;;53.80;24.77;;;5.50;29.70;;;;;;5011903;28;20993;-55
2023/04/09 05:59:18;;;;;;;36.33;24.03;;;5.60;28.70;;;;;;5009660;28;20955;-53
2023/04/09 06:01:46;;;;;;;31.40;24.77;;;5.60;27.50;;;;;;5010753;28;20998;-54
2023/04/09 06:04:13;;;;;;;32.90;24.83;;;5.50;27.40;;;;;;5009801;28;20478;-55
2023/04/09 06:06:40;;;;;;;50.53;24.03;;;5.60;28.30;;;;;;5011118;28;20510;-54
2023/04/09 06:09:06;;;;;;;31.57;23.27;;;5.50;25.70;;;;;;5008705;28;20499;-55
2023/04/09 06:11:33;;;;;;;72.00;23.87;;;5.50;26.50;;;;;;5010586;28;20990;-55
2023/04/09 06:13:59;;;;;;;31.90;22.90;;;5.60;27.20;;;;;;5006729;28;20933;-55
2023/04/09 06:16:26;;;;;;;34.30;24.97;;;5.60;26.20;;;;;;5010448;28;20509;-54
2023/04/09 06:18:55;;;;;;;32.13;23.83;;;5.60;26.40;;;;;;5011808;28;20500;-55
2023/04/09 06:21:22;;;;;;;32.07;23.03;;;5.70;25.50;;;;;;5009805;28;20513;-54
2023/04/09 06:23:50;;;;;;;30.43;22.93;;;5.70;24.90;;;;;;5010233;28;20471;-55
2023/04/09 06:26:16;;;;;;;34.13;22.27;;;5.70;24.90;;;;;;5010894;28;20672;-54
2023/04/09 06:28:43;;;;;;;37.27;23.47;;;5.70;23.90;;;;;;5014829;28;20597;-54
2023/04/09 06:31:10;;;;;;;38.60;22.87;;;5.70;23.50;;;;;;5014464;28;20520;-55
2023/04/09 06:33:36;;;;;;;35.00;23.63;;;5.70;23.30;;;;;;5014565;28;20472;-54
2023/04/09 06:36:04;;;;;;;45.80;24.87;;;5.70;23.40;;;;;;5015751;28;20451;-55
2023/04/09 06:38:31;;;;;;;35.23;24.43;;;5.80;23.20;;;;;;5009420;28;20528;-55
2023/04/09 06:40:58;;;;;;;59.67;24.97;;;5.80;22.50;;;;;;5013138;28;20465;-54
2023/04/09 06:43:24;;;;;;;35.00;24.97;;;5.80;22.20;;;;;;5016925;28;20545;-54
2023/04/09 06:45:51;;;;;;;61.27;24.80;;;5.80;22.20;;;;;;5014223;28;20544;-54
2023/04/09 06:48:17;;;;;;;32.67;24.57;;;5.90;21.80;;;;;;5047704;22;20528;-52
2023/04/09 06:50:44;;;;;;;37.27;23.70;;;5.90;21.50;;;;;;5046717;28;20508;-51
2023/04/09 06:53:12;;;;;;;35.10;24.10;;;5.90;21.50;;;;;;5050709;28;20467;-51
2023/04/09 06:55:39;;;;;;;28.70;21.93;;;6.00;21.00;;;;;;5052536;28;20487;-52
2023/04/09 06:58:05;;;;;;;31.37;23.43;;;5.90;21.10;;;;;;5052394;28;20488;-53
2023/04/09 07:00:32;;;;;;;30.70;24.13;;;5.90;21.10;;;;;;5049892;28;20479;-52
2023/04/09 07:02:59;;;;;;;30.80;22.70;;;6.00;20.80;;;;;;5053775;28;20545;-52
2023/04/09 07:05:26;;;;;;;27.17;23.27;;;5.90;21.50;;;;;;5049957;28;20455;-53
2023/04/09 07:07:52;;;;;;;31.83;21.50;;;5.90;21.90;;;;;;5051842;28;20577;-54
2023/04/09 07:10:20;;;;;;;31.70;23.23;;;6.00;21.70;;;;;;5052201;28;21064;-51
2023/04/09 07:12:47;;;;;;;33.43;23.93;;;5.90;23.10;;;;;;5043256;28;21055;-52
2023/04/09 07:15:13;;;;;;;50.47;22.27;;;5.90;22.40;;;;;;5050384;28;20546;-50
2023/04/09 07:17:40;;;;;;;38.60;22.90;;;5.90;23.30;;;;;;5051660;28;20460;-50
2023/04/09 07:20:07;;;;;;;28.60;23.27;;;5.80;24.80;;;;;;5052846;28;21074;-50
2023/04/09 07:22:34;;;;;;;30.10;22.67;;;5.80;23.20;;;;;;5051777;28;20468;-50
2023/04/09 07:25:00;;;;;;;26.23;21.00;;;5.80;23.50;;;;;;5052920;28;20506;-50
2023/04/09 07:27:29;;;;;;;34.40;21.37;;;5.80;23.30;;;;;;5051104;28;21050;-50
2023/04/09 07:29:56;;;;;;;33.60;21.53;;;5.80;23.40;;;;;;5047096;28;20475;-49
2023/04/09 07:32:23;;;;;;;28.80;21.00;;;5.80;22.40;;;;;;5049770;28;20466;-50
2023/04/09 07:34:51;;;;;;;25.73;19.77;;;5.80;23.10;;;;;;5051154;28;20457;-50
2023/04/09 07:37:17;;;;;;;24.70;19.93;;;5.80;24.30;;;;;;5051586;28;20599;-50
2023/04/09 07:39:44;;;;;;;27.50;21.97;;;5.90;24.00;;;;;;5045998;28;20538;-50
2023/04/09 07:42:10;;;;;;;27.00;21.70;;;5.90;23.00;;;;;;5044183;28;21209;-50
2023/04/09 07:44:38;;;;;;;28.60;21.93;;;5.90;24.60;;;;;;5049742;28;20492;-49
2023/04/09 07:47:06;;;;;;;27.77;21.83;;;6.10;21.90;;;;;;5052420;28;20478;-50
2023/04/09 07:49:35;;;;;;;26.50;20.83;;;6.00;23.90;;;;;;5051547;28;20488;-50
2023/04/09 07:52:02;;;;;;;27.13;21.60;;;6.10;23.20;;;;;;5051236;28;21030;-50
2023/04/09 07:54:30;;;;;;;24.87;19.63;;;6.10;23.20;;;;;;5047995;28;20460;-50
2023/04/09 07:56:56;;;;;;;25.53;20.37;;;6.20;22.50;;;;;;5050091;28;20501;-50
2023/04/09 07:59:23;;;;;;;25.50;20.77;;;6.30;22.90;;;;;;5046206;28;20508;-50
2023/04/09 08:01:51;;;;;;;23.80;19.63;;;6.30;23.30;;;;;;5050952;28;20461;-50
2023/04/09 08:04:17;;;;;;;26.67;18.77;;;6.20;31.10;;;;;;5052519;28;20506;-49
2023/04/09 08:06:48;;;;;;;28.60;22.30;;;6.20;32.00;;;;;;5048125;28;20468;-49
2023/04/09 08:09:15;;;;;;;22.30;18.83;;;6.10;34.30;;;;;;5046451;28;20492;-50
2023/04/09 08:11:44;;;;;;;26.03;21.13;;;6.20;29.60;;;;;;5050615;28;20881;-50
2023/04/09 08:14:11;;;;;;;28.00;22.13;;;6.30;30.80;;;;;;5047572;28;21030;-50
2023/04/09 08:16:39;;;;;;;27.27;20.77;;;6.30;32.40;;;;;;5048755;28;20472;-50
2023/04/09 08:19:07;;;;;;;27.10;20.63;;;6.30;33.90;;;;;;5050716;28;20481;-50
2023/04/09 08:21:33;;;;;;;27.27;21.30;;;6.30;32.50;;;;;;5048678;28;20469;-49
2023/04/09 08:24:03;;;;;;;27.30;20.37;;;6.40;34.80;;;;;;5051007;28;20503;-49
2023/04/09 08:26:29;;;;;;;24.17;20.03;;;6.50;34.50;;;;;;5053689;28;20475;-50
2023/04/09 08:28:56;;;;;;;28.23;22.60;;;6.50;38.70;;;;;;5047678;28;20481;-50
2023/04/09 08:31:23;;;;;;;31.40;23.30;;;6.60;41.00;;;;;;5047219;28;20468;-50
2023/04/09 08:33:52;;;;;;;30.43;23.53;;;6.50;41.10;;;;;;5050328;28;20556;-50
2023/04/09 08:36:20;;;;;;;33.13;22.80;;;6.50;40.20;;;;;;5051136;28;20501;-50
2023/04/09 08:38:47;;;;;;;32.33;22.90;;;6.40;47.20;;;;;;5049829;28;20508;-49
2023/04/09 08:41:18;;;;;;;29.00;20.47;;;6.40;42.20;;;;;;5046995;28;20461;-49
2023/04/09 08:43:46;;;;;;;32.63;22.47;;;6.60;40.30;;;;;;5044303;28;20453;-49
2023/04/09 08:46:14;;;;;;;28.63;21.83;;;6.60;43.90;;;;;;5048099;28;20515;-50
2023/04/09 08:48:42;;;;;;;32.93;22.70;;;6.70;42.20;;;;;;5045625;28;20491;-50
2023/04/09 08:51:12;;;;;;;30.73;22.83;;;6.70;42.20;;;;;;5040953;28;20507;-50
2023/04/09 08:53:42;;;;;;;35.23;24.63;;;6.60;54.90;;;;;;5046350;28;20510;-50
2023/04/09 08:56:09;;;;;;;35.13;24.17;;;6.70;51.50;;;;;;5048557;28;21152;-50
2023/04/09 08:58:35;;;;;;;32.57;22.83;;;6.70;52.30;;;;;;5045772;28;20473;-50
2023/04/09 09:01:02;;;;;;;28.13;21.83;;;6.70;54.90;;;;;;5048346;28;20491;-51
2023/04/09 09:03:29;;;;;;;33.67;23.90;;;6.80;47.70;;;;;;5048889;28;21028;-50
2023/04/09 09:05:55;;;;;;;29.00;21.60;;;6.60;53.10;;;;;;5049684;28;20488;-53
2023/04/09 09:08:24;;;;;;;40.10;23.40;;;6.80;45.00;;;;;;5052337;28;20531;-50
2023/04/09 09:10:52;;;;;;;27.67;20.83;;;6.90;42.10;;;;;;5049413;28;20474;-50
2023/04/09 09:13:21;;;;;;;29.80;22.77;;;6.80;53.50;;;;;;5044998;28;20470;-49
2023/04/09 09:15:51;;;;;;;34.03;24.63;;;7.00;48.70;;;;;;5046132;28;20515;-50
2023/04/09 09:18:19;;;;;;;37.33;25.80;;;7.10;48.60;;;;;;5040619;28;20465;-49
2023/04/09 09:20:45;;;;;;;39.13;24.90;;;6.90;49.60;;;;;;5041949;28;20591;-50
2023/04/09 09:23:12;;;;;;;37.93;28.17;;;7.10;46.60;;;;;;5042531;28;20457;-50
2023/04/09 09:25:39;;;;;;;37.57;26.67;;;7.10;54.40;;;;;;5039414;28;20516;-49
2023/04/09 09:28:11;;;;;;;37.27;25.80;;;7.10;59.00;;;;;;5045649;28;20489;-49
2023/04/09 09:30:39;;;;;;;37.17;26.03;;;7.10;60.40;;;;;;5044572;28;20485;-49
2023/04/09 09:33:07;;;;;;;36.73;25.17;;;7.20;54.10;;;;;;5048004;28;20532;-50
2023/04/09 09:35:48;;;;;;;38.33;23.80;;;7.20;53.00;;;;;;5044377;28;20468;-50
2023/04/09 09:38:15;;;;;;;36.10;25.73;;;7.20;66.60;;;;;;5048686;28;21007;-50
2023/04/09 09:40:42;;;;;;;31.37;23.00;;;7.30;65.80;;;;;;5041348;28;20468;-50
2023/04/09 09:43:10;;;;;;;40.63;26.67;;;7.50;68.10;;;;;;5047315;28;20559;-50
2023/04/09 09:45:37;;;;;;;41.00;26.80;;;7.50;94.90;;;;;;5047316;28;20555;-50
2023/04/09 09:48:05;;;;;;;35.63;25.90;;;7.50;89.50;;;;;;5048085;28;20469;-50
2023/04/09 09:50:33;;;;;;;42.20;25.90;;;7.50;90.80;;;;;;5049519;28;20542;-49
2023/04/09 09:53:03;;;;;;;34.47;24.50;;;7.60;99.90;;;;;;5050426;28;20487;-50
2023/04/09 09:55:32;;;;;;;35.47;25.37;;;7.70;91.50;;;;;;5045503;28;20456;-49
2023/04/09 09:58:03;;;;;;;35.83;26.37;;;7.60;92.70;;;;;;5047006;28;20539;-49
2023/04/09 10:00:33;;;;;;;41.17;26.43;;;7.70;95.10;;;;;;5041500;28;20571;-49
2023/04/09 10:03:07;;;;;;;39.07;26.50;;;7.70;99.90;;;;;;5037660;28;20542;-51
2023/04/09 10:05:35;;;;;;;38.87;26.93;;;7.80;98.90;;;;;;5045931;28;20963;-50
2023/04/09 10:08:03;;;;;;;39.67;27.33;;;7.70;99.10;;;;;;5045983;28;20854;-50
2023/04/09 10:10:31;;;;;;;41.73;26.90;;;7.90;90.70;;;;;;5040417;28;20833;-49
2023/04/09 10:12:58;;;;;;;48.90;28.27;;;7.70;99.90;;;;;;5042413;28;20465;-50
2023/04/09 10:15:25;;;;;;;40.20;27.47;;;7.60;98.00;;;;;;5051016;28;20477;-57
2023/04/09 10:17:54;;;;;;;40.13;26.53;;;7.70;99.90;;;;;;5049518;28;20472;-50
2023/04/09 10:20:27;;;;;;;46.43;26.13;;;7.70;99.90;;;;;;5050512;28;20484;-51
2023/04/09 10:22:56;;;;;;;40.50;27.33;;;7.70;99.90;;;;;;5050555;28;20804;-51
2023/04/09 10:25:22;;;;;;;36.97;25.63;;;7.90;99.90;;;;;;5050994;28;20999;-53
2023/04/09 10:27:59;;;;;;;34.83;25.30;;;7.80;99.90;;;;;;5051376;28;20472;-52
2023/04/09 10:30:32;;;;;;;34.70;24.33;;;7.90;99.90;;;;;;5048038;28;20488;-52
2023/04/09 10:33:10;;;;;;;36.40;25.93;;;8.10;99.90;;;;;;5044984;28;20453;-51
2023/04/09 10:35:36;;;;;;;32.20;24.03;;;8.10;99.90;;;;;;5050919;28;20445;-52
2023/04/09 10:38:03;;;;;;;36.13;25.30;;;8.20;99.90;;;;;;5051370;28;20527;-51
2023/04/09 10:40:30;;;;;;;35.87;24.77;;;8.30;99.90;;;;;;5049793;28;20508;-50
2023/04/09 10:42:59;;;;;;;36.43;26.47;;;8.50;99.90;;;;;;5050492;28;20451;-50
2023/04/09 10:45:40;;;;;;;42.07;27.70;;;8.30;99.90;;;;;;5050799;28;20958;-49
2023/04/09 10:48:13;;;;;;;40.23;24.30;;;8.30;99.90;;;;;;5051123;28;20440;-49
2023/04/09 10:50:42;;;;;;;37.73;25.73;;;8.40;99.90;;;;;;5040496;28;20994;-49
2023/04/09 10:53:22;;;;;;;38.57;27.10;;;8.30;99.90;;;;;;5050307;28;20468;-49
2023/04/09 10:55:49;;;;;;;41.87;26.90;;;8.50;99.90;;;;;;5049547;28;20947;-52
2023/04/09 10:58:16;;;;;;;38.87;26.33;;;8.50;99.90;;;;;;5050966;28;20452;-51
2023/04/09 11:00:44;;;;;;;40.10;26.40;;;8.40;99.90;;;;;;5047419;28;20538;-50
2023/04/09 11:03:26;;;;;;;42.97;26.80;;;8.40;99.90;;;;;;5046513;28;20488;-51
2023/04/09 11:05:56;;;;;;;42.50;27.30;;;8.40;99.90;;;;;;5051005;28;20459;-49
2023/04/09 11:08:23;;;;;;;35.80;26.87;;;8.30;99.90;;;;;;5044647;28;20973;-50
2023/04/09 11:10:50;;;;;;;44.80;29.83;;;8.50;99.90;;;;;;5044502;28;20561;-50
2023/04/09 11:13:18;;;;;;;41.60;29.17;;;8.60;99.90;;;;;;5050858;28;20468;-49
2023/04/09 11:15:46;;;;;;;48.53;28.13;;;8.60;99.90;;;;;;5054140;28;20535;-48
2023/04/09 11:18:20;;;;;;;40.90;28.97;;;8.50;99.90;;;;;;5054768;28;20444;-51
2023/04/09 11:20:46;;;;;;;44.40;28.23;;;8.50;99.90;;;;;;5054150;28;20463;-51
2023/04/09 11:23:14;;;;;;;36.17;26.23;;;8.60;99.90;;;;;;5052212;28;20462;-53
2023/04/09 11:25:40;;;;;;;38.97;25.97;;;8.60;99.90;;;;;;5052796;28;20860;-52
2023/04/09 11:28:07;;;;;;;37.07;27.03;;;8.60;99.90;;;;;;5054289;28;20449;-51
2023/04/09 11:30:36;;;;;;;39.90;27.17;;;8.70;99.90;;;;;;5052528;28;20565;-51
2023/04/09 11:33:03;;;;;;;39.00;25.73;;;8.50;99.90;;;;;;5044606;28;20527;-52
2023/04/09 11:35:34;;;;;;;39.03;26.73;;;8.70;99.90;;;;;;5054146;28;20509;-51
2023/04/09 11:38:05;;;;;;;38.13;26.40;;;8.60;99.90;;;;;;5054748;28;20466;-53
2023/04/09 11:40:32;;;;;;;38.90;26.00;;;8.90;99.90;;;;;;5054058;28;20497;-53
2023/04/09 11:42:59;;;;;;;40.33;28.13;;;8.70;99.90;;;;;;5051153;28;20549;-53
2023/04/09 11:45:29;;;;;;;37.57;26.00;;;8.80;99.90;;;;;;5053509;28;20459;-51
2023/04/09 11:47:56;;;;;;;38.90;26.80;;;9.00;99.90;;;;;;5054086;28;20471;-52
2023/04/09 11:50:22;;;;;;;37.43;26.23;;;9.20;99.90;;;;;;5053820;28;20520;-51
2023/04/09 11:52:51;;;;;;;42.23;27.00;;;9.40;99.90;;;;;;5052306;28;20534;-53
2023/04/09 11:55:25;;;;;;;42.20;26.30;;;9.70;99.90;;;;;;5052633;28;20565;-52
2023/04/09 11:57:53;;;;;;;36.73;25.90;;;10.10;99.90;;;;;;5049127;28;20465;-51
2023/04/09 12:00:20;;;;;;;38.43;25.57;;;10.10;99.90;;;;;;5033863;28;20543;-53
2023/04/09 12:02:48;;;;;;;34.00;24.93;;;10.10;28.80;;;;;;5046268;28;20468;-52
2023/04/09 12:05:21;;;;;;;37.97;26.10;;;10.10;33.60;;;;;;5046921;28;20491;-52
2023/04/09 12:07:48;;;;;;;40.50;26.47;;;10.30;64.20;;;;;;5053528;28;20453;-53
2023/04/09 12:10:16;;;;;;;32.63;24.67;;;10.70;59.10;;;;;;5053201;28;20521;-52
2023/04/09 12:12:44;;;;;;;44.90;31.77;;;10.90;86.00;;;;;;5051006;28;20465;-54
2023/04/09 12:15:18;;;;;;;34.83;25.00;;;11.10;99.90;;;;;;5051865;28;20472;-52
2023/04/09 12:17:47;;;;;;;31.90;23.63;;;11.30;88.20;;;;;;5053456;28;20443;-52
2023/04/09 12:20:14;;;;;;;36.30;25.27;;;11.40;99.90;;;;;;5053351;28;20464;-51
2023/04/09 12:22:40;;;;;;;34.50;24.37;;;11.50;99.90;;;;;;5052460;28;20472;-51
2023/04/09 12:25:08;;;;;;;34.43;25.73;;;11.30;99.50;;;;;;5052199;28;20489;-52
2023/04/09 12:27:36;;;;;;;35.23;24.70;;;12.50;99.90;;;;;;5053416;28;20800;-51
2023/04/09 12:30:03;;;;;;;31.03;23.50;;;12.80;99.90;;;;;;5051737;28;21018;-51
2023/04/09 12:32:29;;;;;;;35.53;25.50;;;12.00;99.90;;;;;;5052661;28;20464;-51
2023/04/09 12:34:56;;;;;;;37.17;26.20;;;12.10;99.90;;;;;;5051782;28;20811;-51
2023/04/09 12:37:22;;;;;;;36.50;22.90;;;12.20;99.90;;;;;;5052982;28;20499;-51
2023/04/09 12:39:49;;;;;;;32.17;24.60;;;12.90;43.00;;;;;;5053117;28;20464;-52